createdAt,value
2019-04-16T00:01:15.014Z,64.58
2019-04-16T00:03:46.490Z,64.69
2019-04-16T00:06:33.883Z,64.15
2019-04-16T00:09:20.117Z,64.22
2019-04-16T00:11:53.772Z,63.84
2019-04-16T00:14:25.109Z,64.75
2019-04-16T00:16:54.535Z,65.00
2019-04-16T00:19:23.975Z,65.47
2019-04-16T00:22:00.825Z,65.94
2019-04-16T00:24:31.910Z,65.78
2019-04-16T00:27:01.689Z,65.82
2019-04-16T00:29:33.020Z,65.87
2019-04-16T00:32:02.687Z,65.36
2019-04-16T00:34:33.811Z,65.44
2019-04-16T00:37:03.319Z,66.36
2019-04-16T00:39:32.769Z,66.13
2019-04-16T00:42:02.507Z,66.08
2019-04-16T00:44:31.944Z,66.70
2019-04-16T00:47:01.387Z,66.71
2019-04-16T00:49:30.822Z,66.40
2019-04-16T00:52:00.525Z,66.29
2019-04-16T00:54:29.953Z,66.44
2019-04-16T00:56:59.737Z,66.57
2019-04-16T00:59:29.453Z,67.01
2019-04-16T01:01:59.272Z,67.29
2019-04-16T01:04:28.965Z,67.38
2019-04-16T01:06:58.410Z,67.35
2019-04-16T01:09:27.839Z,67.67
2019-04-16T01:11:57.374Z,67.29
2019-04-16T01:14:27.487Z,67.66
2019-04-16T01:16:57.255Z,67.48
2019-04-16T01:19:26.933Z,67.82
2019-04-16T01:21:56.384Z,68.05
2019-04-16T01:24:26.139Z,67.98
2019-04-16T01:26:58.205Z,67.79
2019-04-16T01:29:27.285Z,67.97
2019-04-16T01:32:01.601Z,68.26
2019-04-16T01:34:32.677Z,68.37
2019-04-16T01:37:07.635Z,68.42
2019-04-16T01:39:41.892Z,68.72
2019-04-16T01:42:11.405Z,69.04
2019-04-16T01:44:40.845Z,69.12
2019-04-16T01:47:10.404Z,69.53
2019-04-16T01:49:42.064Z,69.88
2019-04-16T01:52:10.965Z,69.48
2019-04-16T01:54:40.403Z,69.18
2019-04-16T01:57:10.090Z,69.24
2019-04-16T01:59:39.866Z,69.37
2019-04-16T02:02:14.339Z,69.03
2019-04-16T02:04:40.976Z,69.15
2019-04-16T02:07:10.656Z,69.10
2019-04-16T02:09:40.326Z,68.58
2019-04-16T02:12:12.775Z,68.52
2019-04-16T02:14:40.925Z,68.72
2019-04-16T02:17:10.626Z,68.63
2019-04-16T02:19:40.311Z,70.14
2019-04-16T02:22:12.635Z,71.15
2019-04-16T02:24:40.915Z,70.74
2019-04-16T02:27:10.345Z,71.53
2019-04-16T02:29:39.792Z,71.95
2019-04-16T02:32:09.832Z,72.05
2019-04-16T02:34:39.452Z,70.06
2019-04-16T02:37:08.959Z,70.46
2019-04-16T02:39:53.092Z,69.48
2019-04-16T02:42:10.071Z,69.18
2019-04-16T02:44:39.568Z,69.68
2019-04-16T02:47:09.318Z,70.25
2019-04-16T02:49:38.834Z,70.30
2019-04-16T02:52:17.313Z,70.45
2019-04-16T02:54:48.831Z,70.28
2019-04-16T02:57:31.957Z,69.86
2019-04-16T03:00:04.761Z,69.50
2019-04-16T03:02:45.194Z,69.59
2019-04-16T03:05:16.266Z,69.85
2019-04-16T03:07:46.021Z,70.31
2019-04-16T03:10:15.474Z,70.43
2019-04-16T03:12:45.156Z,70.28
2019-04-16T03:15:16.222Z,70.22
2019-04-16T03:17:46.342Z,70.77
2019-04-16T03:20:20.882Z,70.64
2019-04-16T03:22:51.800Z,70.50
2019-04-16T03:25:21.235Z,70.95
2019-04-16T03:27:51.443Z,70.62
2019-04-16T03:30:21.840Z,70.55
2019-04-16T03:32:51.929Z,70.38
2019-04-16T03:35:25.462Z,70.58
2019-04-16T03:37:52.671Z,70.21
2019-04-16T03:40:25.554Z,70.71
2019-04-16T03:42:53.275Z,70.90
2019-04-16T03:45:22.705Z,71.05
2019-04-16T03:47:52.500Z,70.84
2019-04-16T03:50:21.924Z,70.96
2019-04-16T03:52:51.355Z,71.25
2019-04-16T03:55:25.413Z,71.39
2019-04-16T03:57:52.240Z,71.46
2019-04-16T04:00:21.743Z,71.88
2019-04-16T04:02:54.274Z,71.84
2019-04-16T04:05:22.356Z,71.88
2019-04-16T04:07:54.989Z,71.98
2019-04-16T04:10:30.529Z,72.15
2019-04-16T04:12:54.190Z,71.88
2019-04-16T04:15:26.467Z,71.54
2019-04-16T04:17:55.415Z,71.57
2019-04-16T04:20:25.130Z,71.85
2019-04-16T04:22:57.064Z,71.66
2019-04-16T04:25:26.070Z,71.54
2019-04-16T04:27:55.887Z,71.67
2019-04-16T04:30:28.813Z,71.79
2019-04-16T04:32:57.278Z,72.11
2019-04-16T04:35:26.730Z,72.18
2019-04-16T04:37:56.454Z,72.05
2019-04-16T04:40:25.938Z,72.45
2019-04-16T04:42:57.685Z,72.46
2019-04-16T04:45:27.124Z,72.08
2019-04-16T04:47:56.831Z,72.11
2019-04-16T04:50:26.541Z,72.18
2019-04-16T04:52:56.248Z,72.03
2019-04-16T04:55:26.940Z,71.99
2019-04-16T04:57:56.793Z,71.63
2019-04-16T05:00:26.235Z,71.51
2019-04-16T05:02:55.670Z,71.60
2019-04-16T05:05:25.861Z,71.51
2019-04-16T05:07:59.653Z,71.40
2019-04-16T05:10:26.738Z,71.53
2019-04-16T05:12:56.482Z,71.55
2019-04-16T05:15:26.375Z,71.38
2019-04-16T05:17:57.640Z,71.37
2019-04-16T05:20:29.805Z,70.90
2019-04-16T05:22:58.506Z,70.62
2019-04-16T05:25:33.016Z,70.63
2019-04-16T05:27:59.347Z,70.74
2019-04-16T05:30:28.787Z,70.78
2019-04-16T05:32:58.225Z,70.68
2019-04-16T05:35:27.670Z,70.58
2019-04-16T05:37:57.366Z,70.83
2019-04-16T05:40:28.032Z,70.79
2019-04-16T05:42:58.910Z,70.64
2019-04-16T05:45:29.428Z,70.52
2019-04-16T05:47:58.859Z,70.54
2019-04-16T05:50:29.803Z,70.47
2019-04-16T05:52:59.490Z,70.49
2019-04-16T05:55:31.352Z,70.51
2019-04-16T05:58:00.842Z,70.29
2019-04-16T06:00:32.220Z,70.24
2019-04-16T06:03:01.926Z,70.09
2019-04-16T06:05:31.375Z,69.91
2019-04-16T06:08:10.865Z,69.47
2019-04-16T06:10:40.788Z,69.50
2019-04-16T06:13:12.886Z,69.18
2019-04-16T06:15:44.604Z,69.20
2019-04-16T06:18:18.031Z,68.77
2019-04-16T06:20:49.427Z,68.52
2019-04-16T06:23:21.290Z,68.68
2019-04-16T06:25:52.656Z,68.30
2019-04-16T06:28:24.475Z,68.22
2019-04-16T06:31:05.619Z,68.15
2019-04-16T06:33:44.302Z,67.87
2019-04-16T06:36:24.827Z,67.64
2019-04-16T06:39:10.797Z,67.56
2019-04-16T06:41:57.468Z,67.35
2019-04-16T06:44:29.855Z,67.13
2019-04-16T06:47:10.610Z,66.74
2019-04-16T06:49:41.927Z,66.36
2019-04-16T06:52:29.280Z,66.22
2019-04-16T06:55:12.406Z,66.73
2019-04-16T06:57:52.224Z,66.30
2019-04-16T07:00:33.867Z,65.78
2019-04-16T07:03:18.142Z,65.46
2019-04-16T07:06:04.028Z,65.31
2019-04-16T07:08:50.686Z,64.88
2019-04-16T07:11:21.835Z,64.84
2019-04-16T07:13:51.534Z,64.63
2019-04-16T07:16:20.989Z,64.72
2019-04-16T07:18:50.435Z,64.24
2019-04-16T07:21:19.867Z,64.40
2019-04-16T07:23:49.406Z,64.37
2019-04-16T07:26:19.389Z,64.11
2019-04-16T07:28:58.555Z,63.73
2019-04-16T07:31:43.608Z,63.64
2019-04-16T07:34:32.935Z,63.23
2019-04-16T07:37:17.380Z,62.95
2019-04-16T07:40:09.998Z,62.76
2019-04-16T07:42:57.956Z,62.50
2019-04-16T07:45:43.847Z,62.18
2019-04-16T07:48:33.134Z,61.74
2019-04-16T07:51:20.509Z,61.38
2019-04-16T07:53:54.427Z,60.19
2019-04-16T07:56:28.166Z,60.03
2019-04-16T07:59:00.612Z,60.06
2019-04-16T08:01:29.117Z,57.91
2019-04-16T08:04:01.018Z,57.55
2019-04-16T08:06:30.067Z,58.06
2019-04-16T08:08:59.512Z,57.38
2019-04-16T08:11:29.278Z,55.50
2019-04-16T08:13:58.738Z,53.36
2019-04-16T08:16:28.171Z,54.04
2019-04-16T08:18:57.635Z,55.44
2019-04-16T08:21:27.075Z,55.55
2019-04-16T08:24:00.878Z,55.21
2019-04-16T08:26:30.326Z,55.15
2019-04-16T08:28:59.769Z,54.90
2019-04-16T08:31:30.200Z,55.24
2019-04-16T08:33:59.887Z,55.58
2019-04-16T08:36:29.320Z,55.77
2019-04-16T08:38:58.767Z,56.07
2019-04-16T08:41:28.218Z,55.80
2019-04-16T08:43:59.734Z,55.84
2019-04-16T08:46:29.109Z,55.67
2019-04-16T08:48:58.609Z,55.99
2019-04-16T08:51:30.923Z,56.11
2019-04-16T08:53:59.314Z,56.12
2019-04-16T08:56:28.767Z,56.28
2019-04-16T08:59:00.885Z,56.29
2019-04-16T09:01:31.324Z,55.97
2019-04-16T09:04:02.433Z,55.91
2019-04-16T09:06:32.006Z,55.67
2019-04-16T09:09:12.623Z,55.37
2019-04-16T09:11:35.600Z,55.07
2019-04-16T09:14:06.860Z,54.99
2019-04-16T09:16:43.706Z,54.81
2019-04-16T09:19:15.083Z,54.49
2019-04-16T09:21:44.772Z,54.26
2019-04-16T09:24:21.893Z,54.15
2019-04-16T09:26:56.482Z,54.14
2019-04-16T09:29:44.028Z,54.18
2019-04-16T09:32:20.726Z,54.08
2019-04-16T09:35:10.734Z,53.47
2019-04-16T09:37:47.555Z,53.13
2019-04-16T09:40:22.376Z,52.90
2019-04-16T09:42:52.062Z,52.62
2019-04-16T09:45:24.386Z,51.37
2019-04-16T09:47:53.047Z,51.21
2019-04-16T09:50:22.644Z,50.62
2019-04-16T09:52:55.224Z,50.59
2019-04-16T09:55:23.923Z,50.44
2019-04-16T09:57:53.364Z,48.43
2019-04-16T10:00:24.870Z,47.45
2019-04-16T10:02:55.300Z,47.30
2019-04-16T10:05:26.538Z,46.79
2019-04-16T10:07:57.035Z,46.95
2019-04-16T10:10:27.857Z,48.25
2019-04-16T10:12:58.145Z,48.03
2019-04-16T10:15:27.621Z,47.60
2019-04-16T10:17:58.531Z,47.40
2019-04-16T10:20:28.515Z,46.89
2019-04-16T10:23:00.004Z,46.18
2019-04-16T10:25:29.525Z,46.19
2019-04-16T10:28:01.991Z,46.19
2019-04-16T10:30:34.152Z,46.39
2019-04-16T10:33:03.557Z,46.28
2019-04-16T10:35:33.007Z,46.05
2019-04-16T10:38:04.460Z,46.23
2019-04-16T10:40:35.546Z,46.19
2019-04-16T10:43:22.641Z,45.79
2019-04-16T10:45:57.598Z,44.98
2019-04-16T10:48:30.738Z,44.52
2019-04-16T10:51:15.560Z,44.59
2019-04-16T10:53:59.526Z,44.54
2019-04-16T10:56:31.712Z,42.35
2019-04-16T10:59:11.414Z,41.97
2019-04-16T11:01:42.495Z,42.08
2019-04-16T11:04:17.517Z,42.19
2019-04-16T11:06:48.621Z,42.99
2019-04-16T11:09:18.043Z,41.93
2019-04-16T11:11:47.518Z,40.50
2019-04-16T11:14:16.970Z,40.75
2019-04-16T11:16:48.271Z,40.24
2019-04-16T11:19:18.139Z,40.26
2019-04-16T11:21:47.576Z,41.05
2019-04-16T11:24:20.270Z,41.82
2019-04-16T11:26:48.199Z,42.02
2019-04-16T11:29:17.639Z,41.01
2019-04-16T11:31:47.116Z,40.52
2019-04-16T11:34:17.597Z,41.08
2019-04-16T11:36:47.300Z,40.99
2019-04-16T11:39:16.776Z,40.77
2019-04-16T11:41:46.206Z,40.11
2019-04-16T11:44:17.313Z,40.00
2019-04-16T11:46:46.963Z,39.84
2019-04-16T11:49:16.731Z,39.49
2019-04-16T11:51:46.494Z,38.85
2019-04-16T11:54:16.215Z,38.70
2019-04-16T11:56:46.002Z,37.40
2019-04-16T11:59:15.753Z,36.31
2019-04-16T12:01:47.714Z,37.01
2019-04-16T12:04:24.362Z,37.68
2019-04-16T12:07:11.978Z,36.19
2019-04-16T12:09:47.161Z,35.40
2019-04-16T12:12:18.219Z,35.19
2019-04-16T12:14:53.505Z,36.37
2019-04-16T12:17:30.367Z,37.07
2019-04-16T12:20:01.508Z,36.94
2019-04-16T12:22:32.911Z,37.21
2019-04-16T12:25:07.764Z,37.33
2019-04-16T12:27:48.989Z,38.25
2019-04-16T12:30:36.194Z,37.35
2019-04-16T12:33:22.700Z,37.10
2019-04-16T12:35:51.935Z,37.91
2019-04-16T12:38:29.253Z,37.51
2019-04-16T12:41:04.365Z,37.69
2019-04-16T12:43:38.247Z,37.16
2019-04-16T12:46:10.027Z,37.36
2019-04-16T12:48:57.597Z,36.77
2019-04-16T12:51:39.822Z,37.31
2019-04-16T12:54:25.567Z,37.78
2019-04-16T12:57:16.190Z,37.74
2019-04-16T12:59:58.356Z,37.86
2019-04-16T13:02:29.744Z,36.53
2019-04-16T13:05:09.822Z,37.73
2019-04-16T13:07:40.932Z,38.59
2019-04-16T13:10:14.578Z,38.45
2019-04-16T13:12:51.159Z,38.31
2019-04-16T13:15:28.009Z,38.48
2019-04-16T13:18:04.631Z,38.73
2019-04-16T13:20:38.466Z,38.86
2019-04-16T13:23:15.231Z,39.64
2019-04-16T13:25:56.114Z,39.86
2019-04-16T13:28:25.925Z,40.69
2019-04-16T13:30:55.357Z,41.06
2019-04-16T13:33:24.813Z,41.19
2019-04-16T13:35:54.259Z,40.69
2019-04-16T13:38:25.687Z,40.49
2019-04-16T13:40:55.482Z,40.89
2019-04-16T13:43:26.805Z,40.93
2019-04-16T13:45:58.163Z,41.14
2019-04-16T13:48:29.367Z,40.99
2019-04-16T13:51:00.778Z,41.15
2019-04-16T13:53:43.785Z,41.09
2019-04-16T13:56:18.499Z,41.32
2019-04-16T13:58:47.952Z,42.63
2019-04-16T14:01:19.034Z,42.18
2019-04-16T14:03:48.770Z,41.94
2019-04-16T14:06:18.303Z,41.38
2019-04-16T14:08:47.755Z,41.58
2019-04-16T14:11:19.682Z,41.73
2019-04-16T14:13:50.150Z,40.93
2019-04-16T14:16:19.542Z,41.01
2019-04-16T14:18:49.233Z,40.39
2019-04-16T14:21:19.093Z,40.28
2019-04-16T14:23:49.823Z,40.14
2019-04-16T14:26:19.275Z,39.98
2019-04-16T14:28:52.243Z,39.05
2019-04-16T14:31:22.127Z,38.80
2019-04-16T14:33:59.181Z,39.39
2019-04-16T14:36:28.981Z,39.50
2019-04-16T14:39:06.805Z,39.26
2019-04-16T14:41:34.579Z,40.07
2019-04-16T14:44:05.671Z,39.77
2019-04-16T14:46:35.187Z,40.05
2019-04-16T14:49:04.636Z,39.76
2019-04-16T14:51:34.351Z,40.01
2019-04-16T14:54:05.697Z,40.28
2019-04-16T14:56:39.179Z,40.66
2019-04-16T14:59:32.979Z,40.45
2019-04-16T15:02:04.102Z,42.21
2019-04-16T15:04:35.192Z,43.01
2019-04-16T15:07:12.435Z,43.43
2019-04-16T15:09:43.871Z,43.22
2019-04-16T15:12:13.081Z,43.64
2019-04-16T15:14:51.208Z,44.55
2019-04-16T15:17:22.318Z,45.36
2019-04-16T15:19:53.485Z,46.70
2019-04-16T15:22:27.224Z,47.28
2019-04-16T15:25:14.560Z,47.46
2019-04-16T15:27:49.238Z,48.26
2019-04-16T15:30:28.313Z,48.49
2019-04-16T15:33:13.906Z,48.89
2019-04-16T15:36:00.247Z,49.13
2019-04-16T15:38:37.538Z,49.12
2019-04-16T15:41:24.937Z,49.25
2019-04-16T15:44:11.756Z,49.36
2019-04-16T15:46:59.284Z,50.07
2019-04-16T15:49:45.380Z,51.20
2019-04-16T15:52:29.822Z,52.71
2019-04-16T15:55:15.984Z,53.06
2019-04-16T15:57:51.352Z,54.56
2019-04-16T16:00:28.641Z,56.30
2019-04-16T16:03:04.016Z,57.50
2019-04-16T16:05:35.515Z,58.06
2019-04-16T16:08:15.596Z,57.53
2019-04-16T16:10:47.612Z,60.17
2019-04-16T16:13:17.307Z,61.32
2019-04-16T16:15:46.983Z,61.78
2019-04-16T16:18:16.427Z,62.42
2019-04-16T16:20:45.886Z,62.81
2019-04-16T16:23:15.581Z,63.71
2019-04-16T16:25:45.310Z,65.25
2019-04-16T16:28:14.747Z,65.53
2019-04-16T16:30:44.534Z,64.20
2019-04-16T16:33:13.977Z,66.99
2019-04-16T16:35:57.063Z,67.20
2019-04-16T16:38:15.169Z,68.58
2019-04-16T16:40:49.414Z,68.35
2019-04-16T16:43:16.327Z,68.88
2019-04-16T16:46:04.573Z,67.95
2019-04-16T16:48:34.625Z,67.81
2019-04-16T16:51:04.148Z,66.93
2019-04-16T16:53:37.972Z,68.25
2019-04-16T16:56:24.418Z,68.83
2019-04-16T16:58:59.411Z,70.54
2019-04-16T17:01:49.169Z,70.82
2019-04-16T17:04:20.329Z,72.23
2019-04-16T17:06:50.070Z,72.26
2019-04-16T17:09:21.226Z,71.73
2019-04-16T17:11:51.018Z,73.35
2019-04-16T17:14:20.457Z,73.30
2019-04-16T17:16:49.913Z,69.13
2019-04-16T17:19:19.627Z,69.05
2019-04-16T17:21:49.341Z,68.54
2019-04-16T17:24:19.112Z,69.04
2019-04-16T17:26:49.909Z,69.02
2019-04-16T17:29:20.003Z,68.19
2019-04-16T17:31:50.339Z,67.45
2019-04-16T17:34:20.139Z,67.67
2019-04-16T17:36:49.583Z,69.50
2019-04-16T17:39:20.990Z,71.35
2019-04-16T17:42:03.977Z,71.87
2019-04-16T17:44:33.447Z,71.60
2019-04-16T17:47:10.606Z,71.42
2019-04-16T17:49:53.732Z,71.24
2019-04-16T17:52:43.503Z,70.65
2019-04-16T17:55:14.859Z,71.54
2019-04-16T17:57:55.315Z,70.87
2019-04-16T18:00:42.245Z,72.84
2019-04-16T18:03:22.482Z,74.40
2019-04-16T18:05:53.832Z,75.76
2019-04-16T18:08:41.659Z,76.12
2019-04-16T18:11:13.062Z,75.75
2019-04-16T18:13:44.164Z,75.79
2019-04-16T18:16:16.674Z,75.98
2019-04-16T18:19:00.541Z,76.49
2019-04-16T18:21:31.582Z,76.62
2019-04-16T18:24:08.475Z,76.18
2019-04-16T18:26:45.263Z,76.10
2019-04-16T18:29:21.860Z,76.15
2019-04-16T18:31:57.588Z,74.09
2019-04-16T18:34:34.886Z,74.05
2019-04-16T18:37:17.775Z,73.43
2019-04-16T18:39:54.867Z,73.15
2019-04-16T18:42:26.215Z,73.41
2019-04-16T18:45:13.689Z,72.60
2019-04-16T18:48:03.099Z,71.72
2019-04-16T18:50:26.054Z,72.07
2019-04-16T18:52:54.034Z,71.37
2019-04-16T18:55:23.483Z,72.14
2019-04-16T18:57:53.258Z,72.32
2019-04-16T19:00:40.778Z,72.25
2019-04-16T19:03:14.735Z,73.03
2019-04-16T19:05:41.569Z,73.17
2019-04-16T19:08:11.332Z,74.96
2019-04-16T19:10:40.855Z,75.08
2019-04-16T19:13:11.694Z,75.23
2019-04-16T19:15:41.491Z,74.88
2019-04-16T19:18:19.612Z,75.03
2019-04-16T19:20:42.111Z,74.83
2019-04-16T19:23:11.553Z,75.07
2019-04-16T19:25:41.006Z,73.86
2019-04-16T19:28:10.745Z,72.57
2019-04-16T19:30:40.555Z,72.20
2019-04-16T19:33:10.262Z,71.27
2019-04-16T19:35:39.711Z,71.15
2019-04-16T19:38:09.500Z,70.93
2019-04-16T19:40:38.943Z,71.57
2019-04-16T19:43:08.381Z,71.64
2019-04-16T19:45:40.680Z,71.38
2019-04-16T19:48:09.251Z,71.95
2019-04-16T19:50:38.710Z,72.40
2019-04-16T19:53:13.669Z,72.62
2019-04-16T19:55:39.591Z,72.91
2019-04-16T19:58:09.036Z,74.67
2019-04-16T20:00:38.805Z,75.92
2019-04-16T20:03:08.514Z,76.76
2019-04-16T20:05:37.978Z,76.85
2019-04-16T20:08:07.414Z,76.71
2019-04-16T20:10:37.127Z,75.17
2019-04-16T20:13:06.574Z,75.03
2019-04-16T20:15:36.039Z,76.49
2019-04-16T20:18:07.257Z,76.03
2019-04-16T20:20:37.123Z,75.92
2019-04-16T20:23:06.908Z,76.15
2019-04-16T20:25:36.620Z,76.18
2019-04-16T20:28:09.333Z,75.97
2019-04-16T20:30:37.976Z,75.89
2019-04-16T20:33:07.419Z,75.13
2019-04-16T20:35:36.878Z,75.31
2019-04-16T20:38:06.559Z,75.99
2019-04-16T20:40:36.012Z,75.54
2019-04-16T20:43:05.458Z,75.95
2019-04-16T20:45:34.913Z,76.08
2019-04-16T20:48:04.349Z,76.01
2019-04-16T20:50:33.808Z,76.66
2019-04-16T20:53:06.227Z,76.93
2019-04-16T20:55:34.768Z,76.80
2019-04-16T20:58:04.515Z,76.98
2019-04-16T21:00:35.565Z,77.14
2019-04-16T21:03:05.011Z,77.04
2019-04-16T21:05:35.796Z,77.23
2019-04-16T21:08:05.642Z,77.96
2019-04-16T21:10:36.315Z,76.92
2019-04-16T21:13:06.433Z,76.87
2019-04-16T21:15:36.222Z,77.20
2019-04-16T21:18:10.459Z,77.33
2019-04-16T21:20:37.092Z,77.79
2019-04-16T21:23:07.166Z,77.70
2019-04-16T21:25:37.119Z,77.81
2019-04-16T21:28:21.372Z,77.72
2019-04-16T21:30:52.451Z,78.27
2019-04-16T21:33:29.266Z,78.65
2019-04-16T21:36:04.246Z,79.10
2019-04-16T21:38:33.408Z,79.15
2019-04-16T21:41:03.129Z,79.11
2019-04-16T21:43:35.771Z,78.90
2019-04-16T21:46:04.088Z,78.95
2019-04-16T21:48:36.530Z,79.06
2019-04-16T21:51:06.347Z,79.46
2019-04-16T21:53:35.807Z,79.31
2019-04-16T21:56:08.191Z,79.58
2019-04-16T21:58:36.795Z,79.29
2019-04-16T22:01:10.928Z,79.37
2019-04-16T22:03:42.229Z,79.41
2019-04-16T22:06:11.901Z,79.52
2019-04-16T22:08:41.687Z,79.36
2019-04-16T22:11:11.808Z,78.91
2019-04-16T22:13:42.192Z,78.70
2019-04-16T22:16:11.937Z,79.40
2019-04-16T22:18:42.319Z,80.16
2019-04-16T22:21:11.985Z,80.06
2019-04-16T22:23:41.790Z,80.46
2019-04-16T22:26:11.492Z,80.03
2019-04-16T22:28:44.134Z,80.14
2019-04-16T22:31:12.123Z,80.33
2019-04-16T22:33:41.845Z,80.56
2019-04-16T22:36:11.555Z,80.75
2019-04-16T22:38:42.899Z,80.72
2019-04-16T22:41:27.606Z,80.40
2019-04-16T22:44:15.905Z,80.12
2019-04-16T22:46:53.119Z,80.09
2019-04-16T22:49:23.281Z,80.42
2019-04-16T22:51:53.141Z,80.92
2019-04-16T22:54:22.600Z,81.11
2019-04-16T22:56:53.971Z,81.23
2019-04-16T22:59:23.422Z,81.36
2019-04-16T23:01:53.461Z,81.40
2019-04-16T23:04:26.146Z,81.19
2019-04-16T23:06:54.857Z,81.09
2019-04-16T23:09:26.203Z,81.19
2019-04-16T23:11:56.428Z,81.24
2019-04-16T23:14:26.659Z,81.38
2019-04-16T23:16:56.171Z,81.26
2019-04-16T23:19:26.063Z,81.04
2019-04-16T23:21:55.876Z,81.04
2019-04-16T23:24:25.574Z,81.11
2019-04-16T23:26:55.020Z,80.91
2019-04-16T23:29:24.476Z,81.02
2019-04-16T23:31:56.128Z,81.05
2019-04-16T23:34:25.086Z,81.11
2019-04-16T23:36:54.604Z,81.02
2019-04-16T23:39:24.055Z,80.96
2019-04-16T23:41:53.783Z,81.19
2019-04-16T23:44:25.758Z,81.42
2019-04-16T23:47:10.178Z,81.63
2019-04-16T23:49:48.389Z,82.06
2019-04-16T23:52:22.193Z,81.75
2019-04-16T23:54:58.713Z,81.74
2019-04-16T23:57:46.215Z,82.28
